x

Mid Gulf - 180 Nm South Of Southwest Pass, La (42001) Wave Buoy

3:50pm - Fri 25th Jul 2014 All times are UTC.

  • Sig Wave height 1.3ft
  • Peak Period 9s
  • Average Period 5s
  • Wind
    2mph, 4mph gusts
  • Sea Temp 86°f
  • Air Temp 84°f
  • Sea Pressure 1019.6mb

More Historic Weather Station data

Upgrade to MSW Pro to gain access to the past 30 days of data for over 8000 Wavebouys and Weather Stations around the globe.

Join Pro

Comparision Forecast

View Surf forecast
   
Fri 07/25 3:50pm 1.3ft 9s 5s 2 4 mph 1019.6mb 86f 84f
2:50pm 1.3ft 8s 5s 4 7 mph 1019.3mb 86f 84f
1:50pm 1.3ft 9s 6s 4 7 mph 1018.8mb 85f 84f
12:50pm 1ft 9s 5s 4 7 mph 1018.3mb 85f 84f
11:50am 1ft 9s 5s 7 9 mph 1017.9mb 85f 84f
10:50am 1.3ft 10s 5s 7 9 mph 1017.4mb 85f 84f
9:50am 1ft 10s 5s 4 7 mph 1017.3mb 85f 84f
8:50am 1.3ft 9s 5s 7 9 mph 1017.2mb 85f 84f
7:50am 1ft 10s 5s 7 9 mph 1017.3mb 85f 84f
6:50am 1ft 10s 5s 4
mph
1017.6mb 85f 83f
5:50am 1ft 8s 5s 2 4 mph 1017.9mb 85f 83f
4:50am 1.3ft 10s 5s 2 4 mph 1018.1mb 85f 83f
3:50am 1.3ft 10s 5s 2 4 mph 1018.1mb 86f 83f
2:50am 1.3ft 10s 5s  -  mph 1017.7mb 86f 83f
1:50am 1.3ft 8s 5s  -  2 mph 1017.5mb 86f 82f
12:50am 1.3ft 10s 5s 2 4 mph 1017mb 86f 82f
Thu 07/24 11:50pm 1.3ft 10s 5s 4
mph
1016.6mb 86f 81f
10:50pm 1.3ft 9s 4s 13 18 mph 1016.1mb 86f 82f
9:50pm 1.3ft 9s 5s 4 7 mph 1016.1mb 87f 85f
8:50pm 1.3ft 9s 5s 4 7 mph 1016.4mb 87f 85f
7:50pm 1.3ft 9s 5s 7 9 mph 1016.8mb 87f 85f
6:50pm 1.3ft 10s 5s 9 13 mph 1017.2mb 87f 85f
5:50pm 1.3ft 9s 5s 4 7 mph 1017.9mb 86f 85f
4:50pm 1.3ft 9s 4s 7 9 mph 1017.9mb 86f 84f
3:50pm 1.3ft 9s 4s 9 11 mph 1017.7mb 86f 84f
2:50pm 1ft 9s 4s 11 13 mph 1017.4mb 85f 84f
1:50pm 1ft 9s 4s 9 11 mph 1017.2mb 85f 84f
12:50pm 1ft 9s 4s 9 11 mph 1017mb 85f 84f
11:50am 1ft 8s 4s 9 11 mph 1017mb 85f 84f
10:50am 1ft 9s 4s 9 11 mph 1016.2mb 86f 84f
9:50am 1ft 9s 4s 9 11 mph 1015.7mb 86f 83f
8:50am 1ft 9s 5s 7 9 mph 1015.7mb 86f 83f
7:50am 1ft 9s 5s 7
mph
1016.1mb 86f 83f
6:50am 1ft 9s 4s 2 4 mph 1016.9mb 86f 83f
5:50am 1ft 9s 4s 2 4 mph 1017.2mb 86f 82f
4:50am 1.3ft 9s 4s 9 13 mph 1018.1mb 87f 80f
3:50am 1ft 9s 5s 20 25 mph 1017.7mb 87f 81f
2:50am 1ft 10s 5s 2 7 mph 1017.4mb 87f 84f
1:50am 1ft 9s 5s 4 7 mph 1016.9mb 87f 84f
12:50am 1ft 9s 5s 7
mph
1016.3mb 87f 84f
Wed 07/23 11:50pm 1ft 10s 4s 2 7 mph 1016.2mb 87f 84f
10:50pm 1ft 8s 4s 2 4 mph 1016.4mb 87f 84f
9:50pm 1ft 8s 4s 4
mph
1016.8mb 87f 84f
8:50pm 1ft 3s 4s 4
mph
1017.4mb 87f 83f
7:50pm 1.3ft 9s 4s 4 7 mph 1017.4mb 87f 83f
6:50pm 1ft 8s 4s 7 9 mph 1018mb 87f 82f
5:50pm 1.3ft 3s 3s 7
mph
1018.8mb 86f 82f
4:50pm 1.3ft 4s 3s 7 9 mph 1019.2mb 86f 81f
3:50pm 1.6ft 3s 3s 13 16 mph 1019.2mb 86f 80f
2:50pm 1.3ft 9s 3s 13 16 mph 1018.6mb 86f 80f
1:50pm 1ft 9s 4s 7 9 mph 1018.7mb 86f 82f
12:50pm 1ft 9s 4s 7 9 mph 1018.1mb 86f 84f
11:50am 1ft 2s 3s 7 9 mph 1017.7mb 86f 82f
10:50am 1ft 4s 4s 20 25 mph 1016.9mb 86f 82f
9:50am 1ft 9s 4s  -  2 mph 1017.1mb 86f 83f
8:50am 1ft 4s 4s 7 9 mph 1017mb 86f 83f
7:50am 0.7ft  -  4s 7 11 mph 1017mb 86f 84f
6:50am 0.7ft  -  4s 7 9 mph 1017.4mb 86f 84f
5:50am 1ft 4s 4s 9 11 mph 1017.7mb 87f 84f
4:50am 1ft 8s 4s 9 11 mph 1018.2mb 86f 84f
3:50am 1ft 9s 4s 7 11 mph 1018.4mb 87f 84f
2:50am 1ft 9s 4s 4 7 mph 1018.1mb 87f 84f
1:50am 1ft 4s 4s 4
mph
1017.6mb 87f 84f
12:50am 1ft 4s 4s 2 4 mph 1017.3mb 88f 84f
Tue 07/22 11:50pm 1ft 5s 4s 4 7 mph 1016.7mb 88f 84f
10:50pm 1ft 4s 4s 2 4 mph 1016.8mb 89f 85f
9:50pm 1ft 5s 4s 4 7 mph 1017.2mb 89f 85f
8:50pm 1ft 4s 4s 2 4 mph 1017.4mb 89f 85f
7:50pm 1ft 5s 4s 4 7 mph 1017.4mb 88f 84f
6:50pm 1ft 4s 4s 2 4 mph 1018.3mb 89f 85f
5:50pm 1ft 5s 4s  -  2 mph 1018.9mb 88f 85f
4:50pm 1ft 4s 4s 4
mph
1018.3mb 87f 85f
3:50pm 1.3ft 5s 3s 7
mph
1018.2mb 87f 85f
2:50pm 1ft 4s 4s 16 20 mph 1018.4mb 87f 83f
1:50pm 1ft 4s 4s  -  mph 1018.5mb 87f 87f
12:50pm 1.3ft 5s 4s  -  2 mph 1018.2mb 87f 85f
11:50am 1.3ft 5s 4s  -  2 mph 1017.5mb 87f 84f
10:50am 1.3ft 5s 4s 4 7 mph 1016.5mb 87f 84f
9:50am 1ft 5s 4s 4 7 mph 1016.1mb 87f 84f
8:50am 1.3ft 4s 4s 4 7 mph 1016.1mb 87f 84f
7:50am 1ft 5s 4s 4
mph
1016.4mb 87f 84f
6:50am 1ft 5s 4s 4 7 mph 1017mb 87f 84f
5:50am 1ft 4s 4s 2 4 mph 1017.2mb 87f 85f
4:50am 1ft 4s 4s 2 4 mph 1017.6mb 87f 85f
3:50am 1ft 4s 4s 2 4 mph 1017.8mb 87f 85f
2:50am 1.3ft 4s 4s 2 4 mph 1017.4mb 87f 85f
1:50am 1.3ft 4s 4s 2
mph
1017.2mb 88f 85f
12:50am 1.3ft 4s 4s 4 7 mph 1017.2mb 88f 85f
Mon 07/21 11:50pm 1ft 7s 4s 4 7 mph 1017.1mb 88f 86f
10:50pm 1ft 5s 4s 7 9 mph 1017mb 89f 85f
9:50pm 1ft 5s 4s 4 7 mph 1017.1mb 89f 85f
8:50pm 1ft 4s 4s 2 4 mph 1017.4mb 89f 85f
7:50pm 1ft 4s 4s 7
mph
1017.9mb 88f 85f
6:50pm 1ft 4s 4s 4
mph
1018.4mb 88f 85f
5:50pm 1ft 4s 4s 4 9 mph 1018.9mb 88f 85f